Terminal Aerodrome Forecast
Issued by NWS

Home | Current Version | Previous Version | Text Only | Print | Product List | Glossary On
Versions: 1 2 3 4 5 6 7 8 9 10 11 12 13 14 15 16 17 18 19 20 21 22 23 24 25 26 27 28 29
000
FTUS46 KPDT 202110 AAA
TAFDLS
TAF AMD
KDLS 202110Z 2021/2118 30010G20KT P6SM FEW070 SCT200
     FM210100 29008KT P6SM FEW070 OVC200
     FM211000 VRB04KT P6SM -RA OVC050=

USA.gov is the U.S. government's official web portal to all federal, state and local government web resources and services.